sensor_id;sensor_type;location;lat;lon;timestamp;pressure;altitude;pressure_sealevel;temperature;humidity
62632;BME280;48703;51.248;-0.546;2022-08-05T00:01:58;101199;;;17.31;53.44
62632;BME280;48703;51.248;-0.546;2022-08-05T00:05:00;101201;;;17.28;53.59
62632;BME280;48703;51.248;-0.546;2022-08-05T00:08:02;101198;;;17.23;53.26
62632;BME280;48703;51.248;-0.546;2022-08-05T00:11:06;101200;;;17.17;53.13
62632;BME280;48703;51.248;-0.546;2022-08-05T00:14:05;101202;;;17.12;53.42
62632;BME280;48703;51.248;-0.546;2022-08-05T00:17:07;101204;;;17.08;53.40
62632;BME280;48703;51.248;-0.546;2022-08-05T00:20:09;101210;;;17.04;53.54
62632;BME280;48703;51.248;-0.546;2022-08-05T00:23:11;101213;;;17.00;53.53
62632;BME280;48703;51.248;-0.546;2022-08-05T00:26:13;101221;;;16.97;53.99
62632;BME280;48703;51.248;-0.546;2022-08-05T00:29:15;101227;;;16.96;54.11
62632;BME280;48703;51.248;-0.546;2022-08-05T00:32:17;101231;;;16.93;53.81
62632;BME280;48703;51.248;-0.546;2022-08-05T00:35:19;101234;;;16.90;54.10
62632;BME280;48703;51.248;-0.546;2022-08-05T00:38:20;101240;;;16.86;53.95
62632;BME280;48703;51.248;-0.546;2022-08-05T00:41:26;101246;;;16.82;54.24
62632;BME280;48703;51.248;-0.546;2022-08-05T00:44:24;101249;;;16.79;54.54
62632;BME280;48703;51.248;-0.546;2022-08-05T00:47:26;101250;;;16.76;54.84
62632;BME280;48703;51.248;-0.546;2022-08-05T00:50:28;101249;;;16.74;55.10
62632;BME280;48703;51.248;-0.546;2022-08-05T00:53:30;101249;;;16.74;55.33
62632;BME280;48703;51.248;-0.546;2022-08-05T00:56:31;101247;;;16.74;55.59
62632;BME280;48703;51.248;-0.546;2022-08-05T00:59:33;101244;;;16.73;55.70
62632;BME280;48703;51.248;-0.546;2022-08-05T01:02:35;101242;;;16.70;55.78
62632;BME280;48703;51.248;-0.546;2022-08-05T01:05:37;101246;;;16.65;55.88
62632;BME280;48703;51.248;-0.546;2022-08-05T01:08:39;101245;;;16.61;56.09
62632;BME280;48703;51.248;-0.546;2022-08-05T01:11:41;101242;;;16.58;56.31
62632;BME280;48703;51.248;-0.546;2022-08-05T01:14:45;101245;;;16.55;56.42
62632;BME280;48703;51.248;-0.546;2022-08-05T01:17:46;101252;;;16.51;56.62
62632;BME280;48703;51.248;-0.546;2022-08-05T01:20:49;101255;;;16.48;56.77
62632;BME280;48703;51.248;-0.546;2022-08-05T01:23:53;101254;;;16.43;56.85
62632;BME280;48703;51.248;-0.546;2022-08-05T01:26:55;101255;;;16.38;57.31
62632;BME280;48703;51.248;-0.546;2022-08-05T01:29:53;101258;;;16.32;57.72
62632;BME280;48703;51.248;-0.546;2022-08-05T01:32:54;101262;;;16.29;57.83
62632;BME280;48703;51.248;-0.546;2022-08-05T01:35:56;101264;;;16.27;58.13
62632;BME280;48703;51.248;-0.546;2022-08-05T01:38:57;101266;;;16.24;58.66
62632;BME280;48703;51.248;-0.546;2022-08-05T01:41:59;101269;;;16.21;58.75
62632;BME280;48703;51.248;-0.546;2022-08-05T01:45:01;101270;;;16.18;58.97
62632;BME280;48703;51.248;-0.546;2022-08-05T01:48:03;101270;;;16.17;59.30
62632;BME280;48703;51.248;-0.546;2022-08-05T01:51:05;101272;;;16.15;59.67
62632;BME280;48703;51.248;-0.546;2022-08-05T01:54:07;101272;;;16.13;59.84
62632;BME280;48703;51.248;-0.546;2022-08-05T01:57:09;101278;;;16.06;60.06
62632;BME280;48703;51.248;-0.546;2022-08-05T02:00:11;101274;;;16.01;60.34
62632;BME280;48703;51.248;-0.546;2022-08-05T02:03:15;101279;;;15.98;60.72
62632;BME280;48703;51.248;-0.546;2022-08-05T02:06:14;101285;;;15.93;61.12
62632;BME280;48703;51.248;-0.546;2022-08-05T02:09:16;101288;;;15.90;61.44
62632;BME280;48703;51.248;-0.546;2022-08-05T02:12:19;101293;;;15.88;62.01
62632;BME280;48703;51.248;-0.546;2022-08-05T02:15:21;101292;;;15.86;62.15
62632;BME280;48703;51.248;-0.546;2022-08-05T02:18:23;101289;;;15.82;62.67
62632;BME280;48703;51.248;-0.546;2022-08-05T02:21:25;101282;;;15.79;63.13
62632;BME280;48703;51.248;-0.546;2022-08-05T02:24:26;101282;;;15.74;63.63
62632;BME280;48703;51.248;-0.546;2022-08-05T02:27:27;101280;;;15.72;63.82
62632;BME280;48703;51.248;-0.546;2022-08-05T02:30:31;101277;;;15.70;64.34
62632;BME280;48703;51.248;-0.546;2022-08-05T02:33:31;101280;;;15.67;64.75
62632;BME280;48703;51.248;-0.546;2022-08-05T02:36:33;101281;;;15.65;64.93
62632;BME280;48703;51.248;-0.546;2022-08-05T02:39:35;101283;;;15.63;65.49
62632;BME280;48703;51.248;-0.546;2022-08-05T02:42:37;101285;;;15.59;66.08
62632;BME280;48703;51.248;-0.546;2022-08-05T02:45:39;101287;;;15.59;66.27
62632;BME280;48703;51.248;-0.546;2022-08-05T02:48:40;101288;;;15.56;66.59
62632;BME280;48703;51.248;-0.546;2022-08-05T02:51:42;101292;;;15.54;67.01
62632;BME280;48703;51.248;-0.546;2022-08-05T02:54:44;101293;;;15.51;67.19
62632;BME280;48703;51.248;-0.546;2022-08-05T02:57:46;101293;;;15.50;67.21
62632;BME280;48703;51.248;-0.546;2022-08-05T03:00:48;101292;;;15.48;67.48
62632;BME280;48703;51.248;-0.546;2022-08-05T03:03:51;101295;;;15.46;67.99
62632;BME280;48703;51.248;-0.546;2022-08-05T03:06:51;101297;;;15.44;68.41
62632;BME280;48703;51.248;-0.546;2022-08-05T03:09:53;101298;;;15.39;68.80
62632;BME280;48703;51.248;-0.546;2022-08-05T03:12:55;101298;;;15.36;69.46
62632;BME280;48703;51.248;-0.546;2022-08-05T03:15:57;101297;;;15.31;69.63
62632;BME280;48703;51.248;-0.546;2022-08-05T03:18:59;101297;;;15.29;69.69
62632;BME280;48703;51.248;-0.546;2022-08-05T03:22:01;101299;;;15.26;69.94
62632;BME280;48703;51.248;-0.546;2022-08-05T03:25:03;101302;;;15.27;70.26
62632;BME280;48703;51.248;-0.546;2022-08-05T03:28:05;101307;;;15.24;70.69
62632;BME280;48703;51.248;-0.546;2022-08-05T03:31:06;101310;;;15.21;71.13
62632;BME280;48703;51.248;-0.546;2022-08-05T03:34:08;101315;;;15.15;71.31
62632;BME280;48703;51.248;-0.546;2022-08-05T03:37:10;101322;;;15.13;71.77
62632;BME280;48703;51.248;-0.546;2022-08-05T03:40:12;101326;;;15.12;71.93
62632;BME280;48703;51.248;-0.546;2022-08-05T03:43:14;101329;;;15.07;71.94
62632;BME280;48703;51.248;-0.546;2022-08-05T03:46:15;101331;;;15.02;72.07
62632;BME280;48703;51.248;-0.546;2022-08-05T03:49:17;101335;;;14.99;72.31
62632;BME280;48703;51.248;-0.546;2022-08-05T03:52:21;101333;;;14.97;72.45
62632;BME280;48703;51.248;-0.546;2022-08-05T03:55:24;101337;;;14.97;72.58
62632;BME280;48703;51.248;-0.546;2022-08-05T03:58:23;101343;;;14.95;72.52
62632;BME280;48703;51.248;-0.546;2022-08-05T04:01:25;101348;;;14.95;72.54
62632;BME280;48703;51.248;-0.546;2022-08-05T04:04:27;101351;;;14.93;72.65
62632;BME280;48703;51.248;-0.546;2022-08-05T04:07:29;101352;;;14.92;72.81
62632;BME280;48703;51.248;-0.546;2022-08-05T04:10:30;101356;;;14.89;72.61
62632;BME280;48703;51.248;-0.546;2022-08-05T04:13:32;101353;;;14.87;72.47
62632;BME280;48703;51.248;-0.546;2022-08-05T04:16:34;101352;;;14.85;72.27
62632;BME280;48703;51.248;-0.546;2022-08-05T04:19:40;101355;;;14.83;72.31
62632;BME280;48703;51.248;-0.546;2022-08-05T04:22:38;101356;;;14.81;72.22
62632;BME280;48703;51.248;-0.546;2022-08-05T04:25:40;101356;;;14.81;72.26
62632;BME280;48703;51.248;-0.546;2022-08-05T04:28:42;101355;;;14.79;72.41
62632;BME280;48703;51.248;-0.546;2022-08-05T04:31:43;101359;;;14.77;72.68
62632;BME280;48703;51.248;-0.546;2022-08-05T04:34:45;101364;;;14.71;72.50
62632;BME280;48703;51.248;-0.546;2022-08-05T04:37:47;101370;;;14.68;72.83
62632;BME280;48703;51.248;-0.546;2022-08-05T04:40:49;101375;;;14.64;72.92
62632;BME280;48703;51.248;-0.546;2022-08-05T04:43:51;101379;;;14.62;73.07
62632;BME280;48703;51.248;-0.546;2022-08-05T04:46:53;101382;;;14.58;73.59
62632;BME280;48703;51.248;-0.546;2022-08-05T04:49:55;101382;;;14.55;73.72
62632;BME280;48703;51.248;-0.546;2022-08-05T04:52:56;101385;;;14.52;74.21
62632;BME280;48703;51.248;-0.546;2022-08-05T04:55:58;101386;;;14.51;74.47
62632;BME280;48703;51.248;-0.546;2022-08-05T04:59:00;101390;;;14.48;75.13
62632;BME280;48703;51.248;-0.546;2022-08-05T05:02:02;101396;;;14.43;76.04
62632;BME280;48703;51.248;-0.546;2022-08-05T05:05:04;101400;;;14.42;76.38
62632;BME280;48703;51.248;-0.546;2022-08-05T05:08:06;101400;;;14.38;77.33
62632;BME280;48703;51.248;-0.546;2022-08-05T05:11:08;101402;;;14.36;78.21
62632;BME280;48703;51.248;-0.546;2022-08-05T05:14:09;101409;;;14.32;79.65
62632;BME280;48703;51.248;-0.546;2022-08-05T05:17:11;101414;;;14.32;79.82
62632;BME280;48703;51.248;-0.546;2022-08-05T05:20:13;101417;;;14.31;80.73
62632;BME280;48703;51.248;-0.546;2022-08-05T05:23:15;101419;;;14.30;81.41
62632;BME280;48703;51.248;-0.546;2022-08-05T05:26:17;101420;;;14.29;82.17
62632;BME280;48703;51.248;-0.546;2022-08-05T05:29:19;101423;;;14.29;82.58
62632;BME280;48703;51.248;-0.546;2022-08-05T05:32:21;101427;;;14.27;83.04
62632;BME280;48703;51.248;-0.546;2022-08-05T05:35:22;101428;;;14.28;83.63
62632;BME280;48703;51.248;-0.546;2022-08-05T05:38:24;101427;;;14.30;83.71
62632;BME280;48703;51.248;-0.546;2022-08-05T05:41:26;101429;;;14.30;84.06
62632;BME280;48703;51.248;-0.546;2022-08-05T05:44:28;101434;;;14.31;84.23
62632;BME280;48703;51.248;-0.546;2022-08-05T05:47:30;101432;;;14.31;84.12
62632;BME280;48703;51.248;-0.546;2022-08-05T05:50:32;101431;;;14.31;84.63
62632;BME280;48703;51.248;-0.546;2022-08-05T05:53:34;101436;;;14.32;84.85
62632;BME280;48703;51.248;-0.546;2022-08-05T05:56:35;101442;;;14.32;85.09
62632;BME280;48703;51.248;-0.546;2022-08-05T05:59:37;101444;;;14.33;85.30
62632;BME280;48703;51.248;-0.546;2022-08-05T06:02:39;101446;;;14.31;85.74
62632;BME280;48703;51.248;-0.546;2022-08-05T06:05:41;101450;;;14.32;85.67
62632;BME280;48703;51.248;-0.546;2022-08-05T06:08:43;101456;;;14.32;85.77
62632;BME280;48703;51.248;-0.546;2022-08-05T06:11:45;101461;;;14.30;85.60
62632;BME280;48703;51.248;-0.546;2022-08-05T06:14:47;101465;;;14.29;85.73
62632;BME280;48703;51.248;-0.546;2022-08-05T06:17:48;101468;;;14.31;85.64
62632;BME280;48703;51.248;-0.546;2022-08-05T06:20:50;101470;;;14.33;85.35
62632;BME280;48703;51.248;-0.546;2022-08-05T06:23:52;101478;;;14.35;85.63
62632;BME280;48703;51.248;-0.546;2022-08-05T06:26:54;101481;;;14.36;85.31
62632;BME280;48703;51.248;-0.546;2022-08-05T06:29:56;101483;;;14.35;85.54
62632;BME280;48703;51.248;-0.546;2022-08-05T06:32:58;101487;;;14.35;85.73
62632;BME280;48703;51.248;-0.546;2022-08-05T06:36:00;101492;;;14.36;85.47
62632;BME280;48703;51.248;-0.546;2022-08-05T06:39:01;101500;;;14.38;86.38
62632;BME280;48703;51.248;-0.546;2022-08-05T06:42:03;101502;;;14.40;85.78
62632;BME280;48703;51.248;-0.546;2022-08-05T06:45:06;101503;;;14.41;85.63
62632;BME280;48703;51.248;-0.546;2022-08-05T06:48:07;101505;;;14.39;85.43
62632;BME280;48703;51.248;-0.546;2022-08-05T06:51:09;101506;;;14.38;85.41
62632;BME280;48703;51.248;-0.546;2022-08-05T06:54:11;101504;;;14.41;85.28
62632;BME280;48703;51.248;-0.546;2022-08-05T06:57:13;101508;;;14.46;85.30
62632;BME280;48703;51.248;-0.546;2022-08-05T07:00:15;101513;;;14.49;84.76
62632;BME280;48703;51.248;-0.546;2022-08-05T07:03:16;101514;;;14.52;84.74
62632;BME280;48703;51.248;-0.546;2022-08-05T07:06:18;101518;;;14.56;84.32
62632;BME280;48703;51.248;-0.546;2022-08-05T07:09:20;101521;;;14.60;82.34
62632;BME280;48703;51.248;-0.546;2022-08-05T07:12:22;101521;;;14.63;82.49
62632;BME280;48703;51.248;-0.546;2022-08-05T07:15:24;101521;;;14.69;82.39
62632;BME280;48703;51.248;-0.546;2022-08-05T07:18:26;101525;;;14.77;82.45
62632;BME280;48703;51.248;-0.546;2022-08-05T07:21:27;101531;;;14.80;81.00
62632;BME280;48703;51.248;-0.546;2022-08-05T07:24:29;101536;;;14.83;80.54
62632;BME280;48703;51.248;-0.546;2022-08-05T07:27:31;101540;;;14.86;79.90
62632;BME280;48703;51.248;-0.546;2022-08-05T07:30:34;101543;;;14.89;78.26
62632;BME280;48703;51.248;-0.546;2022-08-05T07:33:35;101544;;;14.91;78.13
62632;BME280;48703;51.248;-0.546;2022-08-05T07:36:37;101545;;;14.95;78.21
62632;BME280;48703;51.248;-0.546;2022-08-05T07:39:39;101547;;;14.97;77.93
62632;BME280;48703;51.248;-0.546;2022-08-05T07:42:40;101553;;;15.00;78.26
62632;BME280;48703;51.248;-0.546;2022-08-05T07:45:42;101552;;;15.05;77.97
62632;BME280;48703;51.248;-0.546;2022-08-05T07:48:44;101557;;;15.10;77.56
62632;BME280;48703;51.248;-0.546;2022-08-05T07:51:46;101561;;;15.13;77.34
62632;BME280;48703;51.248;-0.546;2022-08-05T07:54:48;101558;;;15.15;77.06
62632;BME280;48703;51.248;-0.546;2022-08-05T07:57:50;101559;;;15.22;77.65
62632;BME280;48703;51.248;-0.546;2022-08-05T08:00:52;101565;;;15.30;76.40
62632;BME280;48703;51.248;-0.546;2022-08-05T08:03:53;101568;;;15.35;75.19
62632;BME280;48703;51.248;-0.546;2022-08-05T08:06:55;101569;;;15.38;72.18
62632;BME280;48703;51.248;-0.546;2022-08-05T08:09:57;101567;;;15.40;71.19
62632;BME280;48703;51.248;-0.546;2022-08-05T08:12:59;101565;;;15.42;71.68
62632;BME280;48703;51.248;-0.546;2022-08-05T08:16:01;101568;;;15.45;72.23
62632;BME280;48703;51.248;-0.546;2022-08-05T08:19:03;101575;;;15.51;71.53
62632;BME280;48703;51.248;-0.546;2022-08-05T08:22:05;101575;;;15.56;70.21
62632;BME280;48703;51.248;-0.546;2022-08-05T08:25:07;101575;;;15.61;70.62
62632;BME280;48703;51.248;-0.546;2022-08-05T08:28:08;101579;;;15.67;70.11
62632;BME280;48703;51.248;-0.546;2022-08-05T08:31:10;101574;;;15.74;69.89
62632;BME280;48703;51.248;-0.546;2022-08-05T08:34:12;101572;;;15.82;68.88
62632;BME280;48703;51.248;-0.546;2022-08-05T08:37:14;101579;;;15.93;70.03
62632;BME280;48703;51.248;-0.546;2022-08-05T08:40:16;101578;;;16.03;68.18
62632;BME280;48703;51.248;-0.546;2022-08-05T08:43:18;101588;;;16.11;65.15
62632;BME280;48703;51.248;-0.546;2022-08-05T08:46:19;101588;;;16.14;64.84
62632;BME280;48703;51.248;-0.546;2022-08-05T08:49:22;101584;;;16.20;64.28
62632;BME280;48703;51.248;-0.546;2022-08-05T08:52:25;101582;;;16.28;63.38
62632;BME280;48703;51.248;-0.546;2022-08-05T08:55:25;101586;;;16.34;63.33
62632;BME280;48703;51.248;-0.546;2022-08-05T08:58:27;101588;;;16.42;61.80
62632;BME280;48703;51.248;-0.546;2022-08-05T09:01:29;101582;;;16.45;61.99
62632;BME280;48703;51.248;-0.546;2022-08-05T09:04:32;101588;;;16.49;61.91
62632;BME280;48703;51.248;-0.546;2022-08-05T09:07:33;101590;;;16.51;61.65
62632;BME280;48703;51.248;-0.546;2022-08-05T09:10:34;101591;;;16.55;62.33
62632;BME280;48703;51.248;-0.546;2022-08-05T09:13:37;101586;;;16.63;60.62
62632;BME280;48703;51.248;-0.546;2022-08-05T09:16:38;101589;;;16.68;60.86
62632;BME280;48703;51.248;-0.546;2022-08-05T09:19:40;101591;;;16.74;60.87
62632;BME280;48703;51.248;-0.546;2022-08-05T09:23:14;101592;;;16.80;60.15
62632;BME280;48703;51.248;-0.546;2022-08-05T09:25:44;101591;;;16.87;58.23
62632;BME280;48703;51.248;-0.546;2022-08-05T09:28:46;101590;;;16.92;59.21
62632;BME280;48703;51.248;-0.546;2022-08-05T09:32:00;101595;;;16.96;60.17
62632;BME280;48703;51.248;-0.546;2022-08-05T09:34:50;101601;;;17.07;59.70
62632;BME280;48703;51.248;-0.546;2022-08-05T09:37:52;101603;;;17.17;58.88
62632;BME280;48703;51.248;-0.546;2022-08-05T09:40:54;101603;;;17.21;57.52
62632;BME280;48703;51.248;-0.546;2022-08-05T09:43:55;101602;;;17.27;56.94
62632;BME280;48703;51.248;-0.546;2022-08-05T09:47:04;101603;;;17.35;55.16
62632;BME280;48703;51.248;-0.546;2022-08-05T09:49:58;101604;;;17.38;51.91
62632;BME280;48703;51.248;-0.546;2022-08-05T09:53:00;101604;;;17.41;53.08
62632;BME280;48703;51.248;-0.546;2022-08-05T09:56:02;101612;;;17.49;51.90
62632;BME280;48703;51.248;-0.546;2022-08-05T09:59:05;101607;;;17.57;51.77
62632;BME280;48703;51.248;-0.546;2022-08-05T10:02:06;101608;;;17.66;50.57
62632;BME280;48703;51.248;-0.546;2022-08-05T10:05:10;101605;;;17.72;51.56
62632;BME280;48703;51.248;-0.546;2022-08-05T10:08:10;101604;;;17.79;52.42
62632;BME280;48703;51.248;-0.546;2022-08-05T10:11:12;101609;;;17.87;52.22
62632;BME280;48703;51.248;-0.546;2022-08-05T10:14:21;101609;;;17.93;50.97
62632;BME280;48703;51.248;-0.546;2022-08-05T10:17:15;101617;;;17.96;50.47
62632;BME280;48703;51.248;-0.546;2022-08-05T10:20:17;101610;;;17.99;50.33
62632;BME280;48703;51.248;-0.546;2022-08-05T10:23:20;101612;;;18.07;49.33
62632;BME280;48703;51.248;-0.546;2022-08-05T10:26:21;101608;;;18.09;49.37
62632;BME280;48703;51.248;-0.546;2022-08-05T10:29:23;101614;;;18.14;50.66
62632;BME280;48703;51.248;-0.546;2022-08-05T10:32:24;101618;;;18.09;50.17
62632;BME280;48703;51.248;-0.546;2022-08-05T10:35:26;101623;;;18.15;49.84
62632;BME280;48703;51.248;-0.546;2022-08-05T10:38:28;101613;;;18.21;48.54
62632;BME280;48703;51.248;-0.546;2022-08-05T10:41:31;101616;;;18.27;47.82
62632;BME280;48703;51.248;-0.546;2022-08-05T10:44:32;101610;;;18.30;49.10
62632;BME280;48703;51.248;-0.546;2022-08-05T10:47:34;101614;;;18.38;48.48
62632;BME280;48703;51.248;-0.546;2022-08-05T10:50:46;101616;;;18.47;48.12
62632;BME280;48703;51.248;-0.546;2022-08-05T10:53:39;101620;;;18.55;48.57
62632;BME280;48703;51.248;-0.546;2022-08-05T10:56:43;101618;;;18.61;47.92
62632;BME280;48703;51.248;-0.546;2022-08-05T10:59:41;101620;;;18.67;48.03
62632;BME280;48703;51.248;-0.546;2022-08-05T11:03:17;101614;;;18.62;47.92
62632;BME280;48703;51.248;-0.546;2022-08-05T11:06:01;101622;;;18.66;48.44
62632;BME280;48703;51.248;-0.546;2022-08-05T11:09:20;101630;;;18.65;47.75
62632;BME280;48703;51.248;-0.546;2022-08-05T11:11:49;101633;;;18.63;47.82
62632;BME280;48703;51.248;-0.546;2022-08-05T11:15:04;101630;;;18.66;48.50
62632;BME280;48703;51.248;-0.546;2022-08-05T11:17:53;101630;;;18.71;47.50
62632;BME280;48703;51.248;-0.546;2022-08-05T11:20:54;101646;;;18.74;46.87
62632;BME280;48703;51.248;-0.546;2022-08-05T11:23:56;101643;;;18.78;46.19
62632;BME280;48703;51.248;-0.546;2022-08-05T11:27:31;101647;;;18.83;46.42
62632;BME280;48703;51.248;-0.546;2022-08-05T11:30:00;101648;;;18.88;45.81
62632;BME280;48703;51.248;-0.546;2022-08-05T11:33:35;101645;;;18.90;46.44
62632;BME280;48703;51.248;-0.546;2022-08-05T11:36:04;101647;;;18.92;46.38
62632;BME280;48703;51.248;-0.546;2022-08-05T11:39:05;101647;;;19.01;46.11
62632;BME280;48703;51.248;-0.546;2022-08-05T11:42:07;101653;;;19.06;45.56
62632;BME280;48703;51.248;-0.546;2022-08-05T11:45:09;101641;;;19.09;45.48
62632;BME280;48703;51.248;-0.546;2022-08-05T11:48:11;101647;;;19.09;45.36
62632;BME280;48703;51.248;-0.546;2022-08-05T11:51:13;101647;;;19.05;44.74
62632;BME280;48703;51.248;-0.546;2022-08-05T11:54:20;101650;;;19.08;44.38
62632;BME280;48703;51.248;-0.546;2022-08-05T11:57:17;101649;;;19.06;44.01
62632;BME280;48703;51.248;-0.546;2022-08-05T12:00:26;101644;;;19.12;44.31
62632;BME280;48703;51.248;-0.546;2022-08-05T12:03:20;101653;;;19.16;44.15
62632;BME280;48703;51.248;-0.546;2022-08-05T12:06:22;101657;;;19.14;44.17
62632;BME280;48703;51.248;-0.546;2022-08-05T12:09:24;101652;;;19.04;44.09
62632;BME280;48703;51.248;-0.546;2022-08-05T12:12:26;101656;;;19.02;44.78
62632;BME280;48703;51.248;-0.546;2022-08-05T12:15:28;101652;;;19.08;43.78
62632;BME280;48703;51.248;-0.546;2022-08-05T12:18:31;101656;;;19.21;43.36
62632;BME280;48703;51.248;-0.546;2022-08-05T12:21:32;101658;;;19.27;43.73
62632;BME280;48703;51.248;-0.546;2022-08-05T12:24:33;101657;;;19.36;43.14
62632;BME280;48703;51.248;-0.546;2022-08-05T12:27:35;101661;;;19.47;42.83
62632;BME280;48703;51.248;-0.546;2022-08-05T12:30:37;101660;;;19.53;42.01
62632;BME280;48703;51.248;-0.546;2022-08-05T12:33:39;101663;;;19.60;41.60
62632;BME280;48703;51.248;-0.546;2022-08-05T12:36:41;101661;;;19.62;41.64
62632;BME280;48703;51.248;-0.546;2022-08-05T12:39:43;101663;;;19.68;41.80
62632;BME280;48703;51.248;-0.546;2022-08-05T12:42:44;101662;;;19.80;41.44
62632;BME280;48703;51.248;-0.546;2022-08-05T12:45:50;101670;;;19.86;40.74
62632;BME280;48703;51.248;-0.546;2022-08-05T12:48:55;101675;;;19.94;40.84
62632;BME280;48703;51.248;-0.546;2022-08-05T12:51:51;101669;;;19.95;41.06
62632;BME280;48703;51.248;-0.546;2022-08-05T12:54:52;101679;;;20.05;40.52
62632;BME280;48703;51.248;-0.546;2022-08-05T12:57:55;101684;;;20.08;39.75
62632;BME280;48703;51.248;-0.546;2022-08-05T13:00:56;101682;;;20.01;39.94
62632;BME280;48703;51.248;-0.546;2022-08-05T13:03:57;101686;;;19.97;39.77
62632;BME280;48703;51.248;-0.546;2022-08-05T13:07:00;101688;;;20.04;39.41
62632;BME280;48703;51.248;-0.546;2022-08-05T13:10:01;101686;;;20.13;39.67
62632;BME280;48703;51.248;-0.546;2022-08-05T13:13:04;101688;;;20.28;39.95
62632;BME280;48703;51.248;-0.546;2022-08-05T13:16:10;101688;;;20.33;39.37
62632;BME280;48703;51.248;-0.546;2022-08-05T13:19:09;101695;;;20.42;40.10
62632;BME280;48703;51.248;-0.546;2022-08-05T13:22:08;101686;;;20.49;39.50
62632;BME280;48703;51.248;-0.546;2022-08-05T13:25:11;101691;;;20.62;38.88
62632;BME280;48703;51.248;-0.546;2022-08-05T13:28:12;101706;;;20.70;39.17
62632;BME280;48703;51.248;-0.546;2022-08-05T13:31:14;101699;;;20.76;39.17
62632;BME280;48703;51.248;-0.546;2022-08-05T13:34:16;101704;;;20.77;37.76
62632;BME280;48703;51.248;-0.546;2022-08-05T13:37:18;101701;;;20.80;38.18
62632;BME280;48703;51.248;-0.546;2022-08-05T13:40:20;101696;;;20.90;39.17
62632;BME280;48703;51.248;-0.546;2022-08-05T13:43:21;101700;;;20.91;38.19
62632;BME280;48703;51.248;-0.546;2022-08-05T13:46:24;101704;;;20.93;37.53
62632;BME280;48703;51.248;-0.546;2022-08-05T13:49:25;101701;;;20.82;37.56
62632;BME280;48703;51.248;-0.546;2022-08-05T13:52:27;101695;;;20.87;37.79
62632;BME280;48703;51.248;-0.546;2022-08-05T13:55:29;101693;;;20.97;36.60
62632;BME280;48703;51.248;-0.546;2022-08-05T13:58:31;101693;;;21.05;36.57
62632;BME280;48703;51.248;-0.546;2022-08-05T14:01:33;101703;;;21.15;37.79
62632;BME280;48703;51.248;-0.546;2022-08-05T14:04:35;101712;;;21.28;37.37
62632;BME280;48703;51.248;-0.546;2022-08-05T14:07:37;101710;;;21.38;37.40
62632;BME280;48703;51.248;-0.546;2022-08-05T14:10:38;101714;;;21.51;37.48
62632;BME280;48703;51.248;-0.546;2022-08-05T14:13:40;101709;;;21.44;36.93
62632;BME280;48703;51.248;-0.546;2022-08-05T14:16:43;101713;;;21.41;36.85
62632;BME280;48703;51.248;-0.546;2022-08-05T14:19:44;101716;;;21.36;36.75
62632;BME280;48703;51.248;-0.546;2022-08-05T14:22:46;101716;;;21.32;36.82
62632;BME280;48703;51.248;-0.546;2022-08-05T14:25:47;101718;;;21.39;37.24
62632;BME280;48703;51.248;-0.546;2022-08-05T14:28:49;101714;;;21.54;35.90
62632;BME280;48703;51.248;-0.546;2022-08-05T14:31:51;101707;;;21.68;35.79
62632;BME280;48703;51.248;-0.546;2022-08-05T14:34:53;101706;;;21.80;35.50
62632;BME280;48703;51.248;-0.546;2022-08-05T14:37:55;101708;;;21.88;36.13
62632;BME280;48703;51.248;-0.546;2022-08-05T14:40:57;101714;;;22.06;36.29
62632;BME280;48703;51.248;-0.546;2022-08-05T14:43:59;101719;;;21.95;35.51
62632;BME280;48703;51.248;-0.546;2022-08-05T14:47:01;101720;;;21.74;35.94
62632;BME280;48703;51.248;-0.546;2022-08-05T14:50:03;101727;;;21.54;35.90
62632;BME280;48703;51.248;-0.546;2022-08-05T14:53:04;101722;;;21.38;36.41
62632;BME280;48703;51.248;-0.546;2022-08-05T14:56:06;101719;;;21.29;35.96
62632;BME280;48703;51.248;-0.546;2022-08-05T14:59:08;101714;;;21.18;35.86
62632;BME280;48703;51.248;-0.546;2022-08-05T15:02:10;101711;;;21.30;35.76
62632;BME280;48703;51.248;-0.546;2022-08-05T15:05:12;101706;;;21.53;35.68
62632;BME280;48703;51.248;-0.546;2022-08-05T15:08:14;101700;;;21.79;35.14
62632;BME280;48703;51.248;-0.546;2022-08-05T15:11:16;101703;;;22.04;34.94
62632;BME280;48703;51.248;-0.546;2022-08-05T15:14:17;101709;;;22.30;33.62
62632;BME280;48703;51.248;-0.546;2022-08-05T15:17:19;101705;;;22.47;34.04
62632;BME280;48703;51.248;-0.546;2022-08-05T15:20:21;101706;;;22.47;34.17
62632;BME280;48703;51.248;-0.546;2022-08-05T15:23:23;101712;;;22.36;34.45
62632;BME280;48703;51.248;-0.546;2022-08-05T15:26:25;101710;;;22.17;34.01
62632;BME280;48703;51.248;-0.546;2022-08-05T15:29:27;101710;;;21.99;33.49
62632;BME280;48703;51.248;-0.546;2022-08-05T15:32:28;101711;;;21.84;33.41
62632;BME280;48703;51.248;-0.546;2022-08-05T15:35:30;101713;;;21.72;34.22
62632;BME280;48703;51.248;-0.546;2022-08-05T15:38:32;101713;;;21.63;34.60
62632;BME280;48703;51.248;-0.546;2022-08-05T15:41:34;101715;;;21.60;34.88
62632;BME280;48703;51.248;-0.546;2022-08-05T15:44:37;101714;;;21.49;35.29
62632;BME280;48703;51.248;-0.546;2022-08-05T15:47:38;101720;;;21.42;35.64
62632;BME280;48703;51.248;-0.546;2022-08-05T15:50:40;101721;;;21.32;35.54
62632;BME280;48703;51.248;-0.546;2022-08-05T15:53:41;101720;;;21.23;35.85
62632;BME280;48703;51.248;-0.546;2022-08-05T15:56:43;101721;;;21.17;36.08
62632;BME280;48703;51.248;-0.546;2022-08-05T15:59:45;101721;;;21.12;36.01
62632;BME280;48703;51.248;-0.546;2022-08-05T16:02:47;101722;;;21.11;35.87
62632;BME280;48703;51.248;-0.546;2022-08-05T16:05:49;101720;;;21.17;36.53
62632;BME280;48703;51.248;-0.546;2022-08-05T16:08:51;101717;;;21.49;36.21
62632;BME280;48703;51.248;-0.546;2022-08-05T16:11:53;101711;;;21.82;36.27
62632;BME280;48703;51.248;-0.546;2022-08-05T16:14:54;101714;;;22.06;35.38